createdAt,value
2022-12-09T00:00:12.993Z,6.20
2022-12-09T00:01:16.841Z,6.19
2022-12-09T00:02:19.551Z,6.20
2022-12-09T00:03:23.828Z,6.19
2022-12-09T00:04:27.088Z,6.20
2022-12-09T00:05:28.810Z,6.21
2022-12-09T00:06:33.140Z,6.21
2022-12-09T00:07:35.045Z,6.21
2022-12-09T00:08:37.648Z,6.20
2022-12-09T00:09:39.522Z,6.19
2022-12-09T00:10:44.911Z,6.19
2022-12-09T00:11:47.657Z,6.19
2022-12-09T00:12:55.158Z,6.18
2022-12-09T00:13:58.933Z,6.17
2022-12-09T00:15:01.536Z,6.16
2022-12-09T00:16:07.271Z,6.14
2022-12-09T00:17:10.192Z,6.12
2022-12-09T00:18:12.027Z,6.10
2022-12-09T00:19:15.887Z,6.09
2022-12-09T00:20:20.223Z,6.06
2022-12-09T00:21:25.288Z,6.06
2022-12-09T00:22:27.316Z,6.04
2022-12-09T00:23:29.884Z,6.03
2022-12-09T00:24:32.423Z,6.03
2022-12-09T00:25:35.277Z,6.03
2022-12-09T00:26:37.089Z,6.03
2022-12-09T00:27:39.642Z,6.04
2022-12-09T00:28:43.584Z,6.03
2022-12-09T00:29:46.146Z,6.02
2022-12-09T00:30:48.006Z,6.03
2022-12-09T00:31:51.060Z,6.03
2022-12-09T00:32:52.848Z,6.01
2022-12-09T00:33:58.509Z,6.00
2022-12-09T00:35:00.395Z,5.96
2022-12-09T00:36:08.337Z,5.95
2022-12-09T00:37:10.868Z,5.94
2022-12-09T00:38:12.748Z,5.93
2022-12-09T00:39:15.323Z,5.92
2022-12-09T00:40:16.856Z,5.91
2022-12-09T00:41:19.974Z,5.91
2022-12-09T00:42:25.200Z,5.92
2022-12-09T00:43:27.162Z,5.93
2022-12-09T00:44:31.066Z,5.93
2022-12-09T00:45:38.176Z,5.94
2022-12-09T00:46:39.970Z,5.92
2022-12-09T00:47:42.920Z,5.92
2022-12-09T00:48:45.507Z,5.91
2022-12-09T00:49:48.210Z,5.91
2022-12-09T00:50:50.038Z,5.91
2022-12-09T00:51:54.100Z,5.90
2022-12-09T00:52:55.992Z,5.90
2022-12-09T00:53:58.566Z,5.91
2022-12-09T00:55:00.491Z,5.92
2022-12-09T00:56:03.364Z,5.92
2022-12-09T00:57:05.116Z,5.91
2022-12-09T00:58:08.345Z,5.92
2022-12-09T00:59:10.000Z,5.93
2022-12-09T01:00:14.767Z,5.92
2022-12-09T01:01:16.420Z,5.92
2022-12-09T01:02:19.116Z,5.94
2022-12-09T01:03:21.490Z,5.95
2022-12-09T01:04:25.808Z,5.95
2022-12-09T01:05:27.631Z,5.95
2022-12-09T01:06:30.235Z,5.96
2022-12-09T01:07:32.022Z,5.95
2022-12-09T01:08:38.473Z,5.94
2022-12-09T01:09:40.877Z,5.93
2022-12-09T01:10:45.307Z,5.94
2022-12-09T01:11:46.871Z,5.94
2022-12-09T01:12:49.495Z,5.94
2022-12-09T01:13:51.426Z,5.95
2022-12-09T01:14:54.087Z,5.95
2022-12-09T01:15:57.234Z,5.94
2022-12-09T01:16:59.978Z,5.95
2022-12-09T01:18:01.780Z,5.95
2022-12-09T01:19:08.376Z,5.98
2022-12-09T01:20:10.974Z,6.00
2022-12-09T01:21:14.564Z,6.02
2022-12-09T01:22:17.441Z,6.03
2022-12-09T01:23:19.051Z,6.04
2022-12-09T01:24:22.141Z,6.04
2022-12-09T01:25:23.699Z,6.04
2022-12-09T01:26:26.614Z,6.05
2022-12-09T01:27:29.764Z,6.06
2022-12-09T01:28:32.489Z,6.06
2022-12-09T01:29:34.492Z,6.08
2022-12-09T01:30:37.128Z,6.08
2022-12-09T01:31:40.813Z,6.10
2022-12-09T01:32:43.828Z,6.09
2022-12-09T01:33:46.334Z,6.08
2022-12-09T01:34:49.336Z,6.07
2022-12-09T01:35:51.032Z,6.08
2022-12-09T01:36:53.946Z,6.08
2022-12-09T01:37:55.766Z,6.07
2022-12-09T01:39:00.929Z,6.06
2022-12-09T01:40:06.016Z,6.06
2022-12-09T01:41:09.070Z,6.07
2022-12-09T01:42:19.377Z,6.07
2022-12-09T01:43:22.694Z,6.07
2022-12-09T01:44:26.086Z,6.07
2022-12-09T01:45:44.219Z,6.07
2022-12-09T01:46:48.551Z,6.07
2022-12-09T01:47:54.436Z,6.06
2022-12-09T01:48:56.975Z,6.06
2022-12-09T01:49:58.895Z,6.05
2022-12-09T01:51:04.237Z,6.06
2022-12-09T01:52:10.363Z,6.06
2022-12-09T01:53:14.648Z,6.07
2022-12-09T01:54:16.893Z,6.09
2022-12-09T01:55:19.932Z,6.10
2022-12-09T01:56:25.565Z,6.11
2022-12-09T01:57:28.160Z,6.12
2022-12-09T01:58:29.896Z,6.11
2022-12-09T01:59:32.903Z,6.11
2022-12-09T02:00:39.347Z,6.10
2022-12-09T02:01:43.371Z,6.08
2022-12-09T02:02:48.874Z,6.08
2022-12-09T02:03:51.826Z,6.06
2022-12-09T02:04:54.965Z,6.05
2022-12-09T02:05:57.787Z,6.06
2022-12-09T02:07:02.199Z,6.04
2022-12-09T02:08:07.949Z,6.02
2022-12-09T02:09:10.309Z,6.00
2022-12-09T02:10:16.187Z,5.99
2022-12-09T02:11:30.111Z,5.98
2022-12-09T02:12:39.845Z,5.96
2022-12-09T02:13:48.475Z,5.97
2022-12-09T02:14:57.281Z,5.97
2022-12-09T02:18:45.551Z,5.99
2022-12-09T02:20:01.723Z,5.98
2022-12-09T02:21:13.103Z,5.96
2022-12-09T02:22:20.573Z,5.96
2022-12-09T02:23:28.034Z,5.97
2022-12-09T02:24:40.187Z,5.97
2022-12-09T02:25:47.604Z,5.98
2022-12-09T02:26:55.803Z,5.98
2022-12-09T02:28:18.427Z,5.98
2022-12-09T02:29:38.426Z,5.99
2022-12-09T02:30:47.833Z,5.99
2022-12-09T02:32:07.591Z,6.00
2022-12-09T02:33:25.636Z,5.99
2022-12-09T02:34:31.885Z,5.98
2022-12-09T02:35:40.550Z,5.98
2022-12-09T02:36:52.360Z,5.97
2022-12-09T02:37:59.531Z,5.95
2022-12-09T02:39:02.367Z,5.95
2022-12-09T02:40:11.122Z,5.94
2022-12-09T02:41:20.252Z,5.94
2022-12-09T02:42:25.357Z,5.93
2022-12-09T02:43:32.826Z,5.92
2022-12-09T02:44:38.042Z,5.91
2022-12-09T02:45:42.386Z,5.91
2022-12-09T02:46:45.722Z,5.91
2022-12-09T02:47:51.407Z,5.92
2022-12-09T02:48:57.206Z,5.91
2022-12-09T02:50:03.816Z,5.90
2022-12-09T02:51:10.992Z,5.89
2022-12-09T02:52:13.849Z,5.88
2022-12-09T02:53:18.733Z,5.88
2022-12-09T02:54:21.371Z,5.88
2022-12-09T02:55:28.195Z,5.91
2022-12-09T02:56:30.323Z,5.91
2022-12-09T02:57:36.016Z,5.93
2022-12-09T02:58:37.584Z,5.91
2022-12-09T02:59:40.562Z,5.93
2022-12-09T03:00:42.720Z,5.90
2022-12-09T03:01:52.267Z,5.90
2022-12-09T03:02:58.178Z,5.89
2022-12-09T03:04:07.246Z,5.85
2022-12-09T03:05:21.438Z,5.81
2022-12-09T03:06:27.146Z,5.78
2022-12-09T03:07:34.171Z,5.75
2022-12-09T03:08:43.967Z,5.75
2022-12-09T03:09:52.927Z,5.75
2022-12-09T03:11:01.116Z,5.75
2022-12-09T03:12:09.082Z,5.75
2022-12-09T03:13:17.044Z,5.75
2022-12-09T03:14:25.595Z,5.76
2022-12-09T03:15:31.751Z,5.76
2022-12-09T03:16:37.084Z,5.77
2022-12-09T03:17:41.644Z,5.76
2022-12-09T03:18:49.328Z,5.76
2022-12-09T03:19:54.859Z,5.76
2022-12-09T03:20:59.249Z,5.76
2022-12-09T03:22:05.397Z,5.78
2022-12-09T03:23:11.247Z,5.80
2022-12-09T03:24:17.703Z,5.82
2022-12-09T03:25:25.091Z,5.81
2022-12-09T03:26:30.939Z,5.82
2022-12-09T03:27:39.263Z,5.84
2022-12-09T03:28:45.002Z,5.83
2022-12-09T03:29:50.415Z,5.82
2022-12-09T03:30:53.505Z,5.82
2022-12-09T03:31:59.782Z,5.81
2022-12-09T03:33:03.906Z,5.82
2022-12-09T03:34:10.944Z,5.82
2022-12-09T03:35:26.607Z,5.84
2022-12-09T03:36:36.158Z,5.84
2022-12-09T03:37:40.463Z,5.85
2022-12-09T03:38:46.635Z,5.86
2022-12-09T03:39:51.320Z,5.86
2022-12-09T03:41:01.638Z,5.84
2022-12-09T03:42:09.649Z,5.85
2022-12-09T03:43:15.200Z,5.84
2022-12-09T03:44:20.262Z,5.87
2022-12-09T03:45:24.872Z,5.88
2022-12-09T03:46:29.087Z,5.90
2022-12-09T03:47:31.823Z,5.92
2022-12-09T03:48:34.008Z,5.91
2022-12-09T03:49:38.996Z,5.92
2022-12-09T03:50:46.640Z,5.92
2022-12-09T03:51:56.598Z,5.91
2022-12-09T03:53:03.670Z,5.91
2022-12-09T03:54:10.654Z,5.90
2022-12-09T03:55:19.565Z,5.90
2022-12-09T03:56:25.417Z,5.91
2022-12-09T03:57:28.685Z,5.91
2022-12-09T03:58:33.446Z,5.91
2022-12-09T03:59:36.636Z,5.91
2022-12-09T04:00:39.254Z,5.91
2022-12-09T04:01:44.705Z,5.92
2022-12-09T04:02:47.027Z,5.93
2022-12-09T04:03:50.916Z,5.91
2022-12-09T04:04:52.738Z,5.92
2022-12-09T04:05:55.333Z,5.92
2022-12-09T04:06:58.706Z,5.91
2022-12-09T04:08:01.425Z,5.90
2022-12-09T04:09:04.337Z,5.88
2022-12-09T04:10:08.662Z,5.89
2022-12-09T04:11:10.626Z,5.88
2022-12-09T04:12:13.424Z,5.89
2022-12-09T04:13:15.035Z,5.88
2022-12-09T04:14:17.775Z,5.89
2022-12-09T04:15:19.468Z,5.87
2022-12-09T04:16:22.066Z,5.86
2022-12-09T04:17:23.689Z,5.86
2022-12-09T04:18:27.159Z,5.83
2022-12-09T04:19:28.942Z,5.81
2022-12-09T04:20:31.512Z,5.78
2022-12-09T04:21:33.031Z,5.75
2022-12-09T04:22:37.078Z,5.73
2022-12-09T04:23:42.957Z,5.71
2022-12-09T04:24:46.048Z,5.68
2022-12-09T04:25:47.583Z,5.65
2022-12-09T04:26:50.216Z,5.64
2022-12-09T04:27:52.189Z,5.62
2022-12-09T04:28:54.921Z,5.61
2022-12-09T04:29:56.460Z,5.60
2022-12-09T04:30:59.485Z,5.57
2022-12-09T04:32:01.340Z,5.56
2022-12-09T04:33:03.988Z,5.54
2022-12-09T04:34:09.519Z,5.52
2022-12-09T04:35:12.664Z,5.49
2022-12-09T04:36:16.631Z,5.47
2022-12-09T04:37:19.181Z,5.45
2022-12-09T04:38:22.102Z,5.44
2022-12-09T04:39:25.202Z,5.40
2022-12-09T04:40:26.907Z,5.39
2022-12-09T04:41:29.669Z,5.39
2022-12-09T04:42:31.218Z,5.37
2022-12-09T04:43:33.837Z,5.35
2022-12-09T04:44:35.756Z,5.35
2022-12-09T04:45:38.473Z,5.35
2022-12-09T04:46:40.395Z,5.35
2022-12-09T04:47:43.087Z,5.36
2022-12-09T04:48:45.146Z,5.35
2022-12-09T04:49:47.971Z,5.36
2022-12-09T04:50:49.651Z,5.35
2022-12-09T04:51:52.315Z,5.36
2022-12-09T04:52:54.000Z,5.36
2022-12-09T04:53:58.821Z,5.36
2022-12-09T04:55:00.444Z,5.37
2022-12-09T04:56:06.218Z,5.36
2022-12-09T04:57:08.514Z,5.36
2022-12-09T04:58:11.063Z,5.35
2022-12-09T04:59:12.896Z,5.35
2022-12-09T05:00:16.898Z,5.34
2022-12-09T05:01:28.237Z,5.34
2022-12-09T05:02:33.392Z,5.35
2022-12-09T05:03:36.046Z,5.36
2022-12-09T05:04:38.894Z,5.38
2022-12-09T05:05:41.123Z,5.39
2022-12-09T05:06:44.173Z,5.41
2022-12-09T05:07:46.009Z,5.45
2022-12-09T05:08:49.209Z,5.46
2022-12-09T05:09:53.088Z,5.46
2022-12-09T05:10:56.041Z,5.48
2022-12-09T05:11:58.062Z,5.49
2022-12-09T05:13:00.931Z,5.49
2022-12-09T05:14:03.785Z,5.49
2022-12-09T05:15:06.430Z,5.51
2022-12-09T05:16:15.936Z,5.50
2022-12-09T05:17:20.535Z,5.50
2022-12-09T05:18:22.677Z,5.50
2022-12-09T05:19:25.824Z,5.48
2022-12-09T05:20:29.194Z,5.50
2022-12-09T05:21:31.944Z,5.51
2022-12-09T05:22:33.635Z,5.50
2022-12-09T05:23:37.501Z,5.48
2022-12-09T05:24:41.117Z,5.49
2022-12-09T05:25:45.500Z,5.50
2022-12-09T05:26:47.375Z,5.51
2022-12-09T05:27:50.896Z,5.50
2022-12-09T05:28:52.715Z,5.49
2022-12-09T05:29:55.920Z,5.50
2022-12-09T05:30:59.844Z,5.51
2022-12-09T05:32:02.917Z,5.51
2022-12-09T05:33:05.085Z,5.50
2022-12-09T05:34:07.881Z,5.51
2022-12-09T05:35:11.515Z,5.51
2022-12-09T05:36:15.869Z,5.50
2022-12-09T05:37:18.814Z,5.50
2022-12-09T05:38:21.953Z,5.49
2022-12-09T05:39:25.161Z,5.49
2022-12-09T05:40:27.028Z,5.49
2022-12-09T05:41:31.359Z,5.49
2022-12-09T05:42:37.884Z,5.48
2022-12-09T05:43:44.017Z,5.49
2022-12-09T05:44:46.050Z,5.49
2022-12-09T05:45:49.116Z,5.48
2022-12-09T05:46:50.770Z,5.49
2022-12-09T05:47:54.352Z,5.48
2022-12-09T05:48:56.246Z,5.48
2022-12-09T05:50:04.391Z,5.47
2022-12-09T05:51:14.305Z,5.45
2022-12-09T05:52:17.328Z,5.44
2022-12-09T05:53:19.878Z,5.42
2022-12-09T05:54:22.551Z,5.41
2022-12-09T05:55:24.250Z,5.40
2022-12-09T05:56:31.780Z,5.39
2022-12-09T05:57:34.370Z,5.39
2022-12-09T05:58:37.397Z,5.39
2022-12-09T05:59:40.315Z,5.39
2022-12-09T06:00:42.024Z,5.38
2022-12-09T06:01:44.683Z,5.37
2022-12-09T06:02:46.360Z,5.38
2022-12-09T06:03:50.516Z,5.37
2022-12-09T06:04:52.880Z,5.39
2022-12-09T06:05:56.084Z,5.36
2022-12-09T06:06:57.971Z,5.38
2022-12-09T06:08:05.263Z,5.38
2022-12-09T06:09:11.582Z,5.39
2022-12-09T06:10:15.765Z,5.38
2022-12-09T06:11:20.350Z,5.39
2022-12-09T06:12:25.110Z,5.38
2022-12-09T06:13:27.417Z,5.39
2022-12-09T06:14:30.351Z,5.40
2022-12-09T06:15:35.096Z,5.40
2022-12-09T06:16:38.869Z,5.41
2022-12-09T06:17:41.054Z,5.42
2022-12-09T06:18:43.803Z,5.42
2022-12-09T06:19:46.159Z,5.43
2022-12-09T06:20:49.116Z,5.43
2022-12-09T06:21:50.748Z,5.44
2022-12-09T06:22:53.554Z,5.44
2022-12-09T06:23:55.621Z,5.46
2022-12-09T06:24:58.343Z,5.46
2022-12-09T06:26:00.275Z,5.47
2022-12-09T06:27:07.099Z,5.48
2022-12-09T06:28:10.058Z,5.48
2022-12-09T06:29:12.840Z,5.49
2022-12-09T06:30:14.989Z,5.49
2022-12-09T06:31:18.322Z,5.47
2022-12-09T06:32:20.986Z,5.48
2022-12-09T06:33:53.090Z,5.47
2022-12-09T06:34:46.449Z,5.50
2022-12-09T06:35:48.404Z,5.51
2022-12-09T06:36:51.454Z,5.51
2022-12-09T06:37:53.470Z,5.52
2022-12-09T06:38:57.940Z,5.51
2022-12-09T06:40:02.003Z,5.52
2022-12-09T06:41:07.032Z,5.53
2022-12-09T06:42:10.166Z,5.54
2022-12-09T06:43:22.347Z,5.54
2022-12-09T06:44:26.307Z,5.52
2022-12-09T06:45:28.203Z,5.51
2022-12-09T06:46:31.231Z,5.50
2022-12-09T06:47:33.681Z,5.48
2022-12-09T06:48:36.545Z,5.48
2022-12-09T06:49:38.517Z,5.48
2022-12-09T06:50:41.585Z,5.46
2022-12-09T06:51:44.667Z,5.48
2022-12-09T06:52:46.660Z,5.47
2022-12-09T06:53:49.470Z,5.48
2022-12-09T06:54:51.250Z,5.47
2022-12-09T06:55:54.149Z,5.45
2022-12-09T06:56:57.015Z,5.42
2022-12-09T06:57:59.200Z,5.39
2022-12-09T06:59:07.799Z,5.36
2022-12-09T07:00:10.635Z,5.33
2022-12-09T07:01:17.098Z,5.30
2022-12-09T07:02:19.947Z,5.25
2022-12-09T07:03:23.546Z,5.22
2022-12-09T07:04:26.850Z,5.17
2022-12-09T07:05:29.189Z,5.14
2022-12-09T07:06:35.586Z,5.11
2022-12-09T07:07:38.842Z,5.08
2022-12-09T07:08:41.084Z,5.05
2022-12-09T07:09:44.315Z,5.01
2022-12-09T07:10:51.728Z,4.98
2022-12-09T07:12:06.841Z,4.96
2022-12-09T07:13:08.590Z,4.94
2022-12-09T07:14:14.159Z,4.89
2022-12-09T07:15:16.442Z,4.87
2022-12-09T07:16:20.210Z,4.85
2022-12-09T07:17:23.201Z,4.81
2022-12-09T07:18:26.071Z,4.79
2022-12-09T07:19:29.846Z,4.78
2022-12-09T07:20:32.734Z,4.77
2022-12-09T07:21:34.661Z,4.75
2022-12-09T07:22:37.837Z,4.73
2022-12-09T07:23:40.215Z,4.72
2022-12-09T07:24:43.282Z,4.72
2022-12-09T07:25:45.308Z,4.70
2022-12-09T07:26:48.660Z,4.69
2022-12-09T07:27:51.699Z,4.68
2022-12-09T07:28:53.758Z,4.68
2022-12-09T07:29:58.439Z,4.67
2022-12-09T07:31:00.847Z,4.67
2022-12-09T07:32:04.009Z,4.66
2022-12-09T07:33:07.083Z,4.66
2022-12-09T07:34:11.909Z,4.66
2022-12-09T07:35:15.507Z,4.66
2022-12-09T07:36:21.231Z,4.65
2022-12-09T07:37:24.637Z,4.65
2022-12-09T07:38:27.800Z,4.65
2022-12-09T07:39:29.828Z,4.66
2022-12-09T07:40:32.770Z,4.66
2022-12-09T07:41:34.543Z,4.68
2022-12-09T07:42:37.283Z,4.68
2022-12-09T07:43:39.902Z,4.69
2022-12-09T07:44:41.895Z,4.69
2022-12-09T07:45:46.305Z,4.69
2022-12-09T07:46:50.149Z,4.69
2022-12-09T07:47:52.233Z,4.69
2022-12-09T07:48:57.311Z,4.69
2022-12-09T07:50:06.373Z,4.68
2022-12-09T07:51:09.762Z,4.70
2022-12-09T07:52:13.459Z,4.69
2022-12-09T07:53:15.418Z,4.69
2022-12-09T07:54:20.707Z,4.69
2022-12-09T07:55:23.459Z,4.71
2022-12-09T07:56:28.652Z,4.72
2022-12-09T07:57:31.746Z,4.73
2022-12-09T07:58:34.236Z,4.74
2022-12-09T07:59:37.231Z,4.74
2022-12-09T08:00:39.103Z,4.74
2022-12-09T08:01:43.804Z,4.74
2022-12-09T08:02:45.776Z,4.74
2022-12-09T08:03:56.471Z,4.76
2022-12-09T08:05:02.307Z,4.76
2022-12-09T08:06:05.136Z,4.78
2022-12-09T08:07:08.310Z,4.79
2022-12-09T08:08:10.721Z,4.79
2022-12-09T08:09:14.996Z,4.79
2022-12-09T08:10:17.235Z,4.81
2022-12-09T08:11:22.482Z,4.83
2022-12-09T08:12:25.508Z,4.86
2022-12-09T08:13:27.284Z,4.87
2022-12-09T08:14:30.269Z,4.91
2022-12-09T08:15:32.259Z,4.93
2022-12-09T08:16:35.148Z,4.96
2022-12-09T08:17:39.530Z,4.99
2022-12-09T08:18:42.220Z,5.01
2022-12-09T08:19:45.771Z,5.05
2022-12-09T08:20:48.804Z,5.10
2022-12-09T08:21:54.766Z,5.14
2022-12-09T08:22:57.116Z,5.16
2022-12-09T08:24:02.720Z,5.20
2022-12-09T08:25:07.227Z,5.22
2022-12-09T08:26:11.246Z,5.24
2022-12-09T08:27:14.080Z,5.28
2022-12-09T08:28:15.808Z,5.31
2022-12-09T08:29:18.826Z,5.36
2022-12-09T08:30:21.176Z,5.37
2022-12-09T08:31:25.881Z,5.38
2022-12-09T08:32:27.890Z,5.38
2022-12-09T08:33:34.322Z,5.39
2022-12-09T08:34:47.371Z,5.41
2022-12-09T08:35:49.493Z,5.40
2022-12-09T08:36:54.649Z,5.40
2022-12-09T08:38:00.417Z,5.40
2022-12-09T08:39:05.004Z,5.40
2022-12-09T08:40:08.146Z,5.41
2022-12-09T08:41:13.454Z,5.40
2022-12-09T08:42:16.419Z,5.40
2022-12-09T08:43:19.101Z,5.40
2022-12-09T08:44:22.830Z,5.42
2022-12-09T08:45:24.895Z,5.42
2022-12-09T08:46:27.789Z,5.42
2022-12-09T08:47:30.479Z,5.42
2022-12-09T08:48:33.862Z,5.42
2022-12-09T08:49:37.625Z,5.42
2022-12-09T08:50:40.283Z,5.45
2022-12-09T08:51:42.797Z,5.44
2022-12-09T08:52:45.837Z,5.45
2022-12-09T08:53:48.813Z,5.45
2022-12-09T08:54:51.751Z,5.48
2022-12-09T08:55:53.450Z,5.49
2022-12-09T08:56:57.053Z,5.50
2022-12-09T08:58:00.078Z,5.52
2022-12-09T08:59:03.033Z,5.53
2022-12-09T09:00:08.253Z,5.54
2022-12-09T09:01:16.538Z,5.57
2022-12-09T09:02:19.356Z,5.58
2022-12-09T09:03:21.871Z,5.60
2022-12-09T09:04:27.044Z,5.62
2022-12-09T09:05:30.054Z,5.63
2022-12-09T09:06:33.216Z,5.65
2022-12-09T09:07:36.311Z,5.66
2022-12-09T09:08:40.276Z,5.66
2022-12-09T09:09:43.119Z,5.66
2022-12-09T09:10:45.079Z,5.69
2022-12-09T09:11:48.126Z,5.70
2022-12-09T09:12:50.011Z,5.71
2022-12-09T09:13:53.093Z,5.74
2022-12-09T09:14:56.160Z,5.74
2022-12-09T09:15:59.316Z,5.75
2022-12-09T09:17:01.200Z,5.75
2022-12-09T09:18:03.965Z,5.75
2022-12-09T09:19:07.939Z,5.75
2022-12-09T09:20:11.945Z,5.74
2022-12-09T09:21:17.625Z,5.74
2022-12-09T09:22:20.361Z,5.74
2022-12-09T09:23:22.220Z,5.73
2022-12-09T09:24:26.197Z,5.73
2022-12-09T09:25:28.645Z,5.73
2022-12-09T09:26:31.340Z,5.74
2022-12-09T09:27:38.531Z,5.74
2022-12-09T09:28:42.006Z,5.74
2022-12-09T09:29:43.828Z,5.76
2022-12-09T09:30:50.362Z,5.75
2022-12-09T09:31:55.363Z,5.76
2022-12-09T09:32:58.323Z,5.78
2022-12-09T09:34:01.312Z,5.77
2022-12-09T09:35:04.332Z,5.79
2022-12-09T09:36:12.908Z,5.78
2022-12-09T09:37:15.870Z,5.79
2022-12-09T09:38:18.804Z,5.78
2022-12-09T09:39:23.146Z,5.77
2022-12-09T09:40:33.890Z,5.77
2022-12-09T09:41:46.559Z,5.76
2022-12-09T09:42:51.676Z,5.77
2022-12-09T09:43:56.350Z,5.74
2022-12-09T09:44:59.571Z,5.75
2022-12-09T09:46:02.029Z,5.76
2022-12-09T09:47:14.770Z,5.77
2022-12-09T09:48:20.817Z,5.78
2022-12-09T09:49:34.761Z,5.78
2022-12-09T09:50:44.488Z,5.77
2022-12-09T09:51:49.193Z,5.76
2022-12-09T09:52:54.536Z,5.74
2022-12-09T09:53:57.366Z,5.73
2022-12-09T09:55:02.896Z,5.71
2022-12-09T09:56:11.798Z,5.71
2022-12-09T09:57:17.394Z,5.70
2022-12-09T09:58:26.367Z,5.71
2022-12-09T09:59:40.502Z,5.71
2022-12-09T10:00:51.793Z,5.72
2022-12-09T10:02:03.452Z,5.72
2022-12-09T10:03:16.033Z,5.72
2022-12-09T10:04:25.633Z,5.73
2022-12-09T10:05:33.602Z,5.74
2022-12-09T10:06:46.019Z,5.76
2022-12-09T10:07:55.067Z,5.75
2022-12-09T10:09:04.793Z,5.76
2022-12-09T10:10:19.108Z,5.78
2022-12-09T10:11:30.055Z,5.78
2022-12-09T10:12:41.531Z,5.76
2022-12-09T10:13:56.145Z,5.73
2022-12-09T10:15:02.580Z,5.73
2022-12-09T10:16:14.949Z,5.72
2022-12-09T10:17:27.180Z,5.73
2022-12-09T10:18:34.422Z,5.74
2022-12-09T10:19:42.580Z,5.77
2022-12-09T10:20:45.054Z,5.82
2022-12-09T10:21:50.656Z,5.84
2022-12-09T10:23:00.617Z,5.85
2022-12-09T10:24:17.350Z,5.88
2022-12-09T10:25:24.012Z,5.90
2022-12-09T10:26:30.196Z,5.91
2022-12-09T10:27:38.945Z,5.93
2022-12-09T10:28:47.665Z,5.96
2022-12-09T10:29:56.773Z,6.01
2022-12-09T10:31:12.019Z,6.04
2022-12-09T10:32:18.067Z,6.06
2022-12-09T10:33:27.632Z,6.05
2022-12-09T10:34:30.295Z,6.05
2022-12-09T10:35:34.650Z,6.05
2022-12-09T10:36:37.469Z,6.03
2022-12-09T10:37:40.268Z,6.00
2022-12-09T10:38:43.411Z,5.99
2022-12-09T10:39:47.866Z,5.95
2022-12-09T10:41:00.458Z,5.97
2022-12-09T10:42:22.058Z,5.97
2022-12-09T10:43:35.105Z,5.99
2022-12-09T10:44:38.926Z,6.01
2022-12-09T10:46:16.657Z,6.04
2022-12-09T10:47:24.767Z,6.06
2022-12-09T10:48:32.935Z,6.05
2022-12-09T10:49:37.160Z,6.04
2022-12-09T10:50:48.490Z,6.01
2022-12-09T10:51:53.981Z,5.99
2022-12-09T10:52:58.052Z,6.00
2022-12-09T10:54:07.678Z,5.99
2022-12-09T10:55:22.316Z,5.99
2022-12-09T10:56:27.443Z,5.98
2022-12-09T10:57:30.699Z,5.99
2022-12-09T10:58:32.563Z,5.99
2022-12-09T10:59:36.900Z,6.00
2022-12-09T11:00:39.004Z,6.02
2022-12-09T11:01:53.865Z,6.01
2022-12-09T11:02:56.994Z,6.03
2022-12-09T11:03:59.879Z,6.03
2022-12-09T11:05:24.309Z,6.04
2022-12-09T11:06:30.507Z,6.05
2022-12-09T11:07:33.041Z,6.04
2022-12-09T11:08:36.355Z,6.06
2022-12-09T11:09:42.966Z,6.08
2022-12-09T11:10:49.349Z,6.10
2022-12-09T11:11:52.714Z,6.10
2022-12-09T11:13:05.359Z,6.08
2022-12-09T11:14:22.495Z,6.07
2022-12-09T11:15:29.884Z,6.05
2022-12-09T11:16:33.012Z,6.06
2022-12-09T11:17:39.910Z,6.03
2022-12-09T11:18:45.357Z,6.02
2022-12-09T11:19:52.387Z,6.01
2022-12-09T11:20:57.923Z,5.99
2022-12-09T11:22:24.231Z,5.98
2022-12-09T11:23:27.402Z,5.96
2022-12-09T11:24:31.123Z,5.94
2022-12-09T11:25:38.447Z,5.94
2022-12-09T11:26:41.324Z,5.94
2022-12-09T11:27:50.889Z,5.95
2022-12-09T11:29:04.010Z,5.94
2022-12-09T11:30:14.152Z,5.96
2022-12-09T11:31:35.759Z,5.98
2022-12-09T11:32:52.882Z,5.99
2022-12-09T11:33:59.635Z,6.00
2022-12-09T11:35:02.428Z,6.01
2022-12-09T11:36:09.377Z,6.02
2022-12-09T11:37:11.596Z,6.04
2022-12-09T11:38:22.676Z,6.06
2022-12-09T11:39:31.092Z,6.09
2022-12-09T11:40:34.195Z,6.10
2022-12-09T11:41:54.262Z,6.13
2022-12-09T11:42:57.976Z,6.15
2022-12-09T11:44:00.551Z,6.17
2022-12-09T11:45:06.551Z,6.18
2022-12-09T11:46:21.865Z,6.20
2022-12-09T11:47:36.428Z,6.23
2022-12-09T11:48:54.528Z,6.27
2022-12-09T11:50:13.292Z,6.31
2022-12-09T11:51:23.113Z,6.37
2022-12-09T11:52:30.681Z,6.39
2022-12-09T11:53:38.314Z,6.42
2022-12-09T11:54:48.986Z,6.43
2022-12-09T11:55:58.678Z,6.44
2022-12-09T11:57:02.234Z,6.48
2022-12-09T11:58:07.560Z,6.50
2022-12-09T11:59:15.033Z,6.52
2022-12-09T12:00:20.926Z,6.55
2022-12-09T12:01:31.887Z,6.56
2022-12-09T12:02:41.016Z,6.56
2022-12-09T12:03:50.946Z,6.54
2022-12-09T12:05:10.439Z,6.56
2022-12-09T12:06:19.352Z,6.57
2022-12-09T12:07:28.944Z,6.56
2022-12-09T12:08:37.855Z,6.55
2022-12-09T12:09:45.975Z,6.54
2022-12-09T12:10:52.606Z,6.53
2022-12-09T12:12:05.585Z,6.53
2022-12-09T12:13:17.299Z,6.55
2022-12-09T12:14:23.053Z,6.55
2022-12-09T12:15:31.136Z,6.57
2022-12-09T12:16:39.938Z,6.57
2022-12-09T12:17:45.518Z,6.57
2022-12-09T12:18:54.393Z,6.57
2022-12-09T12:19:57.486Z,6.56
2022-12-09T12:21:35.552Z,6.55
2022-12-09T12:23:06.285Z,6.54
2022-12-09T12:24:22.363Z,6.53
2022-12-09T12:25:37.726Z,6.55
2022-12-09T12:26:48.309Z,6.53
2022-12-09T12:28:18.537Z,6.54
2022-12-09T12:29:31.380Z,6.53
2022-12-09T12:30:40.835Z,6.52
2022-12-09T12:32:08.379Z,6.49
2022-12-09T12:34:00.308Z,6.49
2022-12-09T12:35:01.252Z,6.47
2022-12-09T12:36:11.280Z,6.45
2022-12-09T12:37:27.474Z,6.43
2022-12-09T12:38:52.389Z,6.43
2022-12-09T12:40:04.437Z,6.43
2022-12-09T12:41:10.503Z,6.43
2022-12-09T12:42:25.482Z,6.41
2022-12-09T12:44:05.552Z,6.40
2022-12-09T12:45:35.123Z,6.38
2022-12-09T12:46:51.354Z,6.37
2022-12-09T12:47:59.627Z,6.38
2022-12-09T12:49:18.507Z,6.40
2022-12-09T12:50:39.438Z,6.41
2022-12-09T12:51:54.718Z,6.42
2022-12-09T12:53:05.164Z,6.42
2022-12-09T12:54:20.979Z,6.42
2022-12-09T12:55:37.613Z,6.43
2022-12-09T12:56:50.930Z,6.43
2022-12-09T12:58:00.102Z,6.42
2022-12-09T12:59:14.896Z,6.43
2022-12-09T13:00:20.380Z,6.42
2022-12-09T13:01:31.014Z,6.40
2022-12-09T13:02:44.871Z,6.39
2022-12-09T13:06:48.400Z,6.29
2022-12-09T13:07:57.244Z,6.28
2022-12-09T13:09:03.555Z,6.27
2022-12-09T13:10:16.656Z,6.26
2022-12-09T13:11:22.904Z,6.26
2022-12-09T13:12:42.246Z,6.26
2022-12-09T13:13:49.302Z,6.26
2022-12-09T13:14:55.865Z,6.27
2022-12-09T13:16:02.501Z,6.29
2022-12-09T13:17:09.112Z,6.31
2022-12-09T13:18:15.930Z,6.35
2022-12-09T13:19:24.434Z,6.38
2022-12-09T13:20:34.096Z,6.44
2022-12-09T13:21:37.173Z,6.46
2022-12-09T13:22:48.023Z,6.47
2022-12-09T13:24:01.595Z,6.48
2022-12-09T13:25:14.332Z,6.48
2022-12-09T13:26:27.825Z,6.50
2022-12-09T13:27:39.325Z,6.52
2022-12-09T13:28:48.916Z,6.55
2022-12-09T13:30:00.528Z,6.56
2022-12-09T13:31:08.949Z,6.58
2022-12-09T13:32:40.204Z,6.58
2022-12-09T13:33:50.562Z,6.59
2022-12-09T13:39:58.067Z,6.49
2022-12-09T13:41:00.698Z,6.45
2022-12-09T13:42:20.731Z,6.45
2022-12-09T13:43:26.948Z,6.43
2022-12-09T13:44:33.451Z,6.41
2022-12-09T13:45:49.783Z,6.38
2022-12-09T13:46:51.402Z,6.35
2022-12-09T13:47:55.148Z,6.31
2022-12-09T13:48:57.825Z,6.30
2022-12-09T13:50:01.455Z,6.28
2022-12-09T13:51:04.356Z,6.28
2022-12-09T13:52:07.011Z,6.28
2022-12-09T13:53:26.195Z,6.29
2022-12-09T13:54:30.478Z,6.28
2022-12-09T13:55:52.637Z,6.25
2022-12-09T13:57:19.239Z,6.23
2022-12-09T13:58:41.524Z,6.19
2022-12-09T14:04:25.978Z,6.03
2022-12-09T14:05:31.051Z,6.01
2022-12-09T14:06:40.018Z,5.98
2022-12-09T14:07:48.359Z,5.96
2022-12-09T14:08:53.983Z,5.95
2022-12-09T14:09:58.202Z,5.93
2022-12-09T14:11:39.116Z,5.93
2022-12-09T14:13:05.964Z,5.93
2022-12-09T14:14:37.868Z,5.91
2022-12-09T14:15:41.025Z,5.88
2022-12-09T14:16:43.715Z,5.85
2022-12-09T14:18:03.446Z,5.83
2022-12-09T14:19:51.500Z,5.81
2022-12-09T14:21:27.468Z,5.77
2022-12-09T14:22:33.094Z,5.73
2022-12-09T14:23:35.629Z,5.70
2022-12-09T14:24:37.874Z,5.68
2022-12-09T14:26:00.366Z,5.67
2022-12-09T14:27:13.195Z,5.66
2022-12-09T14:28:37.508Z,5.68
2022-12-09T14:29:49.831Z,5.69
2022-12-09T14:30:54.695Z,5.69
2022-12-09T14:32:03.668Z,5.68
2022-12-09T14:33:22.916Z,5.69
2022-12-09T14:34:33.086Z,5.69
2022-12-09T14:35:45.520Z,5.70
2022-12-09T14:36:54.612Z,5.71
2022-12-09T14:38:19.493Z,5.71
2022-12-09T14:39:29.077Z,5.70
2022-12-09T14:41:15.596Z,5.70
2022-12-09T14:42:29.457Z,5.67
2022-12-09T14:43:50.522Z,5.65
2022-12-09T14:44:59.661Z,5.64
2022-12-09T14:46:03.868Z,5.62
2022-12-09T14:47:17.362Z,5.60
2022-12-09T14:48:22.429Z,5.60
2022-12-09T14:49:28.473Z,5.59
2022-12-09T14:50:30.128Z,5.58
2022-12-09T14:51:37.557Z,5.60
2022-12-09T14:52:50.675Z,5.63
2022-12-09T14:53:57.434Z,5.62
2022-12-09T14:55:03.778Z,5.61
2022-12-09T14:56:05.960Z,5.59
2022-12-09T14:57:21.029Z,5.58
2022-12-09T14:58:24.300Z,5.55